sensor_id;sensor_type;location;lat;lon;timestamp;P1;durP1;ratioP1;P2;durP2;ratioP2
75520;SDS011;64102;48.628;9.002;2024-02-14T00:00:06;9.55;;;0.65;;
75520;SDS011;64102;48.628;9.002;2024-02-14T00:02:38;6.70;;;0.55;;
75520;SDS011;64102;48.628;9.002;2024-02-14T00:05:10;8.13;;;0.57;;
75520;SDS011;64102;48.628;9.002;2024-02-14T00:07:36;6.57;;;0.77;;
75520;SDS011;64102;48.628;9.002;2024-02-14T00:10:02;5.72;;;0.52;;
75520;SDS011;64102;48.628;9.002;2024-02-14T00:12:30;5.93;;;0.70;;
75520;SDS011;64102;48.628;9.002;2024-02-14T00:14:56;6.63;;;0.63;;
75520;SDS011;64102;48.628;9.002;2024-02-14T00:17:22;5.93;;;0.45;;
75520;SDS011;64102;48.628;9.002;2024-02-14T00:19:48;7.90;;;0.55;;
75520;SDS011;64102;48.628;9.002;2024-02-14T00:22:14;6.50;;;0.55;;
75520;SDS011;64102;48.628;9.002;2024-02-14T00:24:39;5.70;;;0.50;;
75520;SDS011;64102;48.628;9.002;2024-02-14T00:27:04;5.03;;;0.53;;
75520;SDS011;64102;48.628;9.002;2024-02-14T00:29:31;5.68;;;0.50;;
75520;SDS011;64102;48.628;9.002;2024-02-14T00:31:59;4.20;;;0.30;;
75520;SDS011;64102;48.628;9.002;2024-02-14T00:34:24;5.13;;;0.50;;
75520;SDS011;64102;48.628;9.002;2024-02-14T00:36:50;5.82;;;0.47;;
75520;SDS011;64102;48.628;9.002;2024-02-14T00:39:15;4.32;;;0.28;;
75520;SDS011;64102;48.628;9.002;2024-02-14T00:41:41;6.63;;;0.30;;
75520;SDS011;64102;48.628;9.002;2024-02-14T00:44:06;9.93;;;0.90;;
75520;SDS011;64102;48.628;9.002;2024-02-14T00:46:31;5.53;;;0.60;;
75520;SDS011;64102;48.628;9.002;2024-02-14T00:48:57;3.50;;;0.33;;
75520;SDS011;64102;48.628;9.002;2024-02-14T00:51:22;5.03;;;0.37;;
75520;SDS011;64102;48.628;9.002;2024-02-14T00:53:47;5.73;;;0.40;;
75520;SDS011;64102;48.628;9.002;2024-02-14T00:56:13;5.28;;;0.32;;
75520;SDS011;64102;48.628;9.002;2024-02-14T00:58:39;4.32;;;0.40;;
75520;SDS011;64102;48.628;9.002;2024-02-14T01:01:05;10.90;;;0.50;;
75520;SDS011;64102;48.628;9.002;2024-02-14T01:03:31;7.90;;;0.55;;
75520;SDS011;64102;48.628;9.002;2024-02-14T01:05:56;8.80;;;0.70;;
75520;SDS011;64102;48.628;9.002;2024-02-14T01:08:22;5.93;;;0.73;;
75520;SDS011;64102;48.628;9.002;2024-02-14T01:10:47;6.32;;;0.45;;
75520;SDS011;64102;48.628;9.002;2024-02-14T01:13:16;5.00;;;0.40;;
75520;SDS011;64102;48.628;9.002;2024-02-14T01:15:42;7.15;;;0.50;;
75520;SDS011;64102;48.628;9.002;2024-02-14T01:18:07;5.95;;;0.30;;
75520;SDS011;64102;48.628;9.002;2024-02-14T01:20:33;7.37;;;0.50;;
75520;SDS011;64102;48.628;9.002;2024-02-14T01:22:58;6.00;;;0.60;;
75520;SDS011;64102;48.628;9.002;2024-02-14T01:25:24;6.25;;;0.40;;
75520;SDS011;64102;48.628;9.002;2024-02-14T01:27:51;5.15;;;0.45;;
75520;SDS011;64102;48.628;9.002;2024-02-14T01:30:17;7.15;;;0.50;;
75520;SDS011;64102;48.628;9.002;2024-02-14T01:32:43;6.82;;;0.57;;
75520;SDS011;64102;48.628;9.002;2024-02-14T01:35:08;6.05;;;0.70;;
75520;SDS011;64102;48.628;9.002;2024-02-14T01:37:34;7.55;;;0.70;;
75520;SDS011;64102;48.628;9.002;2024-02-14T01:40:00;6.22;;;0.50;;
75520;SDS011;64102;48.628;9.002;2024-02-14T01:42:25;7.75;;;0.60;;
75520;SDS011;64102;48.628;9.002;2024-02-14T01:44:52;7.53;;;0.70;;
75520;SDS011;64102;48.628;9.002;2024-02-14T01:47:19;7.60;;;0.85;;
75520;SDS011;64102;48.628;9.002;2024-02-14T01:49:45;6.18;;;0.43;;
75520;SDS011;64102;48.628;9.002;2024-02-14T01:52:12;6.90;;;0.60;;
75520;SDS011;64102;48.628;9.002;2024-02-14T01:54:38;6.97;;;0.70;;
75520;SDS011;64102;48.628;9.002;2024-02-14T01:57:04;6.28;;;0.60;;
75520;SDS011;64102;48.628;9.002;2024-02-14T01:59:30;6.68;;;0.82;;
75520;SDS011;64102;48.628;9.002;2024-02-14T02:01:59;9.00;;;0.70;;
75520;SDS011;64102;48.628;9.002;2024-02-14T02:04:25;8.90;;;0.98;;
75520;SDS011;64102;48.628;9.002;2024-02-14T02:06:50;7.28;;;0.68;;
75520;SDS011;64102;48.628;9.002;2024-02-14T02:09:16;8.90;;;0.88;;
75520;SDS011;64102;48.628;9.002;2024-02-14T02:11:42;4.75;;;0.43;;
75520;SDS011;64102;48.628;9.002;2024-02-14T02:14:13;6.55;;;0.60;;
75520;SDS011;64102;48.628;9.002;2024-02-14T02:16:39;7.38;;;0.60;;
75520;SDS011;64102;48.628;9.002;2024-02-14T02:19:04;5.80;;;0.68;;
75520;SDS011;64102;48.628;9.002;2024-02-14T02:21:33;5.22;;;0.68;;
75520;SDS011;64102;48.628;9.002;2024-02-14T02:24:00;7.15;;;0.50;;
75520;SDS011;64102;48.628;9.002;2024-02-14T02:26:25;6.85;;;0.43;;
75520;SDS011;64102;48.628;9.002;2024-02-14T02:28:51;5.10;;;0.20;;
75520;SDS011;64102;48.628;9.002;2024-02-14T02:31:16;6.38;;;0.50;;
75520;SDS011;64102;48.628;9.002;2024-02-14T02:33:42;5.55;;;0.40;;
75520;SDS011;64102;48.628;9.002;2024-02-14T02:36:08;5.13;;;0.50;;
75520;SDS011;64102;48.628;9.002;2024-02-14T02:38:34;6.75;;;0.60;;
75520;SDS011;64102;48.628;9.002;2024-02-14T02:41:01;5.07;;;0.50;;
75520;SDS011;64102;48.628;9.002;2024-02-14T02:43:33;5.82;;;0.40;;
75520;SDS011;64102;48.628;9.002;2024-02-14T02:45:59;6.82;;;0.50;;
75520;SDS011;64102;48.628;9.002;2024-02-14T02:48:25;4.78;;;0.40;;
75520;SDS011;64102;48.628;9.002;2024-02-14T02:50:50;5.72;;;0.28;;
75520;SDS011;64102;48.628;9.002;2024-02-14T02:53:16;6.05;;;0.50;;
75520;SDS011;64102;48.628;9.002;2024-02-14T02:55:42;5.60;;;0.50;;
75520;SDS011;64102;48.628;9.002;2024-02-14T02:58:08;3.03;;;0.20;;
75520;SDS011;64102;48.628;9.002;2024-02-14T03:00:33;3.00;;;0.17;;
75520;SDS011;64102;48.628;9.002;2024-02-14T03:02:59;3.03;;;0.10;;
75520;SDS011;64102;48.628;9.002;2024-02-14T03:05:25;3.95;;;0.20;;
75520;SDS011;64102;48.628;9.002;2024-02-14T03:07:51;5.43;;;0.43;;
75520;SDS011;64102;48.628;9.002;2024-02-14T03:10:17;4.35;;;0.30;;
75520;SDS011;64102;48.628;9.002;2024-02-14T03:12:49;3.08;;;0.10;;
75520;SDS011;64102;48.628;9.002;2024-02-14T03:15:14;5.20;;;0.30;;
75520;SDS011;64102;48.628;9.002;2024-02-14T03:17:40;5.53;;;0.20;;
75520;SDS011;64102;48.628;9.002;2024-02-14T03:20:07;3.08;;;0.30;;
75520;SDS011;64102;48.628;9.002;2024-02-14T03:22:37;5.72;;;0.20;;
75520;SDS011;64102;48.628;9.002;2024-02-14T03:25:07;6.10;;;0.30;;
75520;SDS011;64102;48.628;9.002;2024-02-14T03:27:33;4.63;;;0.32;;
75520;SDS011;64102;48.628;9.002;2024-02-14T03:29:59;3.85;;;0.25;;
75520;SDS011;64102;48.628;9.002;2024-02-14T03:32:28;3.42;;;0.20;;
75520;SDS011;64102;48.628;9.002;2024-02-14T03:34:54;4.00;;;0.28;;
75520;SDS011;64102;48.628;9.002;2024-02-14T03:37:19;3.65;;;0.30;;
75520;SDS011;64102;48.628;9.002;2024-02-14T03:39:44;5.78;;;0.50;;
75520;SDS011;64102;48.628;9.002;2024-02-14T03:42:10;6.43;;;0.40;;
75520;SDS011;64102;48.628;9.002;2024-02-14T03:44:36;4.15;;;0.30;;
75520;SDS011;64102;48.628;9.002;2024-02-14T03:47:03;3.20;;;0.20;;
75520;SDS011;64102;48.628;9.002;2024-02-14T03:49:29;6.13;;;0.30;;
75520;SDS011;64102;48.628;9.002;2024-02-14T03:51:56;4.22;;;0.17;;
75520;SDS011;64102;48.628;9.002;2024-02-14T03:54:21;2.63;;;0.15;;
75520;SDS011;64102;48.628;9.002;2024-02-14T03:56:48;4.40;;;0.20;;
75520;SDS011;64102;48.628;9.002;2024-02-14T03:59:13;2.45;;;0.13;;
75520;SDS011;64102;48.628;9.002;2024-02-14T04:01:43;5.03;;;0.30;;
75520;SDS011;64102;48.628;9.002;2024-02-14T04:04:10;3.55;;;0.10;;
75520;SDS011;64102;48.628;9.002;2024-02-14T04:06:35;4.03;;;0.30;;
75520;SDS011;64102;48.628;9.002;2024-02-14T04:09:00;4.60;;;0.30;;
75520;SDS011;64102;48.628;9.002;2024-02-14T04:11:26;4.07;;;0.50;;
75520;SDS011;64102;48.628;9.002;2024-02-14T04:13:51;4.10;;;0.30;;
75520;SDS011;64102;48.628;9.002;2024-02-14T04:16:20;2.70;;;0.25;;
75520;SDS011;64102;48.628;9.002;2024-02-14T04:18:46;3.75;;;0.20;;
75520;SDS011;64102;48.628;9.002;2024-02-14T04:21:11;4.20;;;0.20;;
75520;SDS011;64102;48.628;9.002;2024-02-14T04:23:37;2.57;;;0.20;;
75520;SDS011;64102;48.628;9.002;2024-02-14T04:26:02;3.63;;;0.20;;
75520;SDS011;64102;48.628;9.002;2024-02-14T04:28:28;4.20;;;0.30;;
75520;SDS011;64102;48.628;9.002;2024-02-14T04:30:53;2.50;;;0.10;;
75520;SDS011;64102;48.628;9.002;2024-02-14T04:33:20;3.47;;;0.22;;
75520;SDS011;64102;48.628;9.002;2024-02-14T04:35:46;4.22;;;0.13;;
75520;SDS011;64102;48.628;9.002;2024-02-14T04:38:12;3.25;;;0.10;;
75520;SDS011;64102;48.628;9.002;2024-02-14T04:40:37;3.08;;;0.20;;
75520;SDS011;64102;48.628;9.002;2024-02-14T04:43:03;4.38;;;0.90;;
75520;SDS011;64102;48.628;9.002;2024-02-14T04:45:29;2.72;;;0.20;;
75520;SDS011;64102;48.628;9.002;2024-02-14T04:47:54;3.67;;;0.17;;
75520;SDS011;64102;48.628;9.002;2024-02-14T04:50:20;2.77;;;0.20;;
75520;SDS011;64102;48.628;9.002;2024-02-14T04:52:45;2.97;;;0.10;;
75520;SDS011;64102;48.628;9.002;2024-02-14T04:55:11;5.15;;;0.20;;
75520;SDS011;64102;48.628;9.002;2024-02-14T04:57:36;4.17;;;0.20;;
75520;SDS011;64102;48.628;9.002;2024-02-14T05:00:02;1.33;;;0.10;;
75520;SDS011;64102;48.628;9.002;2024-02-14T05:02:29;3.60;;;0.30;;
75520;SDS011;64102;48.628;9.002;2024-02-14T05:04:55;2.53;;;0.28;;
75520;SDS011;64102;48.628;9.002;2024-02-14T05:07:20;1.90;;;0.10;;
75520;SDS011;64102;48.628;9.002;2024-02-14T05:09:45;3.05;;;0.10;;
75520;SDS011;64102;48.628;9.002;2024-02-14T05:12:13;3.80;;;0.10;;
75520;SDS011;64102;48.628;9.002;2024-02-14T05:14:38;4.17;;;0.10;;
75520;SDS011;64102;48.628;9.002;2024-02-14T05:17:05;2.33;;;0.10;;
75520;SDS011;64102;48.628;9.002;2024-02-14T05:19:30;5.28;;;0.20;;
75520;SDS011;64102;48.628;9.002;2024-02-14T05:21:56;4.43;;;0.10;;
75520;SDS011;64102;48.628;9.002;2024-02-14T05:24:21;2.88;;;0.10;;
75520;SDS011;64102;48.628;9.002;2024-02-14T05:26:46;3.17;;;0.10;;
75520;SDS011;64102;48.628;9.002;2024-02-14T05:29:12;3.97;;;0.20;;
75520;SDS011;64102;48.628;9.002;2024-02-14T05:31:44;3.30;;;0.10;;
75520;SDS011;64102;48.628;9.002;2024-02-14T05:34:11;1.77;;;0.10;;
75520;SDS011;64102;48.628;9.002;2024-02-14T05:36:36;3.38;;;0.10;;
75520;SDS011;64102;48.628;9.002;2024-02-14T05:39:02;3.78;;;0.20;;
75520;SDS011;64102;48.628;9.002;2024-02-14T05:41:28;3.08;;;0.10;;
75520;SDS011;64102;48.628;9.002;2024-02-14T05:43:55;3.95;;;0.10;;
75520;SDS011;64102;48.628;9.002;2024-02-14T05:46:20;2.37;;;0.10;;
75520;SDS011;64102;48.628;9.002;2024-02-14T05:48:46;2.80;;;0.10;;
75520;SDS011;64102;48.628;9.002;2024-02-14T05:51:13;1.95;;;0.03;;
75520;SDS011;64102;48.628;9.002;2024-02-14T05:53:38;2.15;;;0.10;;
75520;SDS011;64102;48.628;9.002;2024-02-14T05:56:04;2.83;;;0.10;;
75520;SDS011;64102;48.628;9.002;2024-02-14T05:58:29;3.38;;;0.10;;
75520;SDS011;64102;48.628;9.002;2024-02-14T06:00:54;2.47;;;0.17;;
75520;SDS011;64102;48.628;9.002;2024-02-14T06:03:20;1.15;;;0.10;;
75520;SDS011;64102;48.628;9.002;2024-02-14T06:05:46;3.60;;;0.20;;
75520;SDS011;64102;48.628;9.002;2024-02-14T06:08:11;1.98;;;0.10;;
75520;SDS011;64102;48.628;9.002;2024-02-14T06:10:37;3.47;;;0.10;;
75520;SDS011;64102;48.628;9.002;2024-02-14T06:13:03;2.70;;;0.10;;
75520;SDS011;64102;48.628;9.002;2024-02-14T06:15:29;2.85;;;0.15;;
75520;SDS011;64102;48.628;9.002;2024-02-14T06:17:54;3.47;;;0.10;;
75520;SDS011;64102;48.628;9.002;2024-02-14T06:20:20;3.75;;;0.10;;
75520;SDS011;64102;48.628;9.002;2024-02-14T06:22:45;5.20;;;0.20;;
75520;SDS011;64102;48.628;9.002;2024-02-14T06:25:11;2.50;;;0.10;;
75520;SDS011;64102;48.628;9.002;2024-02-14T06:27:36;2.17;;;0.10;;
75520;SDS011;64102;48.628;9.002;2024-02-14T06:30:02;3.05;;;0.10;;
75520;SDS011;64102;48.628;9.002;2024-02-14T06:32:28;2.33;;;0.10;;
75520;SDS011;64102;48.628;9.002;2024-02-14T06:34:53;2.05;;;0.10;;
75520;SDS011;64102;48.628;9.002;2024-02-14T06:37:19;3.27;;;0.20;;
75520;SDS011;64102;48.628;9.002;2024-02-14T06:39:45;2.38;;;0.20;;
75520;SDS011;64102;48.628;9.002;2024-02-14T06:42:10;3.53;;;0.20;;
75520;SDS011;64102;48.628;9.002;2024-02-14T06:44:35;4.37;;;0.23;;
75520;SDS011;64102;48.628;9.002;2024-02-14T06:47:01;7.83;;;0.20;;
75520;SDS011;64102;48.628;9.002;2024-02-14T06:49:26;3.13;;;0.13;;
75520;SDS011;64102;48.628;9.002;2024-02-14T06:51:51;3.57;;;0.10;;
75520;SDS011;64102;48.628;9.002;2024-02-14T06:54:17;2.33;;;0.10;;
75520;SDS011;64102;48.628;9.002;2024-02-14T06:56:44;3.40;;;0.20;;
75520;SDS011;64102;48.628;9.002;2024-02-14T06:59:10;4.18;;;0.20;;
75520;SDS011;64102;48.628;9.002;2024-02-14T07:01:35;3.23;;;0.20;;
75520;SDS011;64102;48.628;9.002;2024-02-14T07:04:00;4.32;;;0.10;;
75520;SDS011;64102;48.628;9.002;2024-02-14T07:06:26;3.78;;;0.10;;
75520;SDS011;64102;48.628;9.002;2024-02-14T07:08:52;2.80;;;0.10;;
75520;SDS011;64102;48.628;9.002;2024-02-14T07:11:18;2.25;;;0.10;;
75520;SDS011;64102;48.628;9.002;2024-02-14T07:13:44;2.35;;;0.10;;
75520;SDS011;64102;48.628;9.002;2024-02-14T07:16:09;6.10;;;0.25;;
75520;SDS011;64102;48.628;9.002;2024-02-14T07:18:34;7.40;;;0.40;;
75520;SDS011;64102;48.628;9.002;2024-02-14T07:21:00;3.95;;;0.20;;
75520;SDS011;64102;48.628;9.002;2024-02-14T07:23:26;2.08;;;0.10;;
75520;SDS011;64102;48.628;9.002;2024-02-14T07:25:52;2.67;;;0.22;;
75520;SDS011;64102;48.628;9.002;2024-02-14T07:28:18;4.72;;;0.17;;
75520;SDS011;64102;48.628;9.002;2024-02-14T07:30:43;4.90;;;0.20;;
75520;SDS011;64102;48.628;9.002;2024-02-14T07:33:09;4.10;;;0.13;;
75520;SDS011;64102;48.628;9.002;2024-02-14T07:35:36;5.22;;;0.10;;
75520;SDS011;64102;48.628;9.002;2024-02-14T07:38:02;2.47;;;0.13;;
75520;SDS011;64102;48.628;9.002;2024-02-14T07:40:27;1.98;;;0.10;;
75520;SDS011;64102;48.628;9.002;2024-02-14T07:42:56;2.95;;;0.10;;
75520;SDS011;64102;48.628;9.002;2024-02-14T07:45:23;1.88;;;0.13;;
75520;SDS011;64102;48.628;9.002;2024-02-14T07:47:49;3.57;;;0.10;;
75520;SDS011;64102;48.628;9.002;2024-02-14T07:50:15;3.70;;;0.10;;
75520;SDS011;64102;48.628;9.002;2024-02-14T07:52:41;5.20;;;0.15;;
75520;SDS011;64102;48.628;9.002;2024-02-14T07:55:08;3.45;;;0.15;;
75520;SDS011;64102;48.628;9.002;2024-02-14T07:57:37;2.17;;;0.10;;
75520;SDS011;64102;48.628;9.002;2024-02-14T08:00:02;3.33;;;0.08;;
75520;SDS011;64102;48.628;9.002;2024-02-14T08:02:28;2.15;;;0.10;;
75520;SDS011;64102;48.628;9.002;2024-02-14T08:04:54;4.70;;;0.20;;
75520;SDS011;64102;48.628;9.002;2024-02-14T08:07:19;2.55;;;0.10;;
75520;SDS011;64102;48.628;9.002;2024-02-14T08:09:45;2.55;;;0.10;;
75520;SDS011;64102;48.628;9.002;2024-02-14T08:12:10;1.77;;;0.10;;
75520;SDS011;64102;48.628;9.002;2024-02-14T08:14:36;2.80;;;0.10;;
75520;SDS011;64102;48.628;9.002;2024-02-14T08:17:01;3.65;;;0.10;;
75520;SDS011;64102;48.628;9.002;2024-02-14T08:19:27;2.88;;;0.20;;
75520;SDS011;64102;48.628;9.002;2024-02-14T08:21:52;2.78;;;0.10;;
75520;SDS011;64102;48.628;9.002;2024-02-14T08:24:23;3.38;;;0.40;;
75520;SDS011;64102;48.628;9.002;2024-02-14T08:26:51;2.13;;;0.10;;
75520;SDS011;64102;48.628;9.002;2024-02-14T08:29:17;2.80;;;0.10;;
75520;SDS011;64102;48.628;9.002;2024-02-14T08:31:43;4.90;;;0.10;;
75520;SDS011;64102;48.628;9.002;2024-02-14T08:34:08;3.00;;;0.10;;
75520;SDS011;64102;48.628;9.002;2024-02-14T08:36:34;2.50;;;0.10;;
75520;SDS011;64102;48.628;9.002;2024-02-14T08:39:06;2.70;;;0.10;;
75520;SDS011;64102;48.628;9.002;2024-02-14T08:41:32;2.22;;;0.10;;
75520;SDS011;64102;48.628;9.002;2024-02-14T08:43:57;3.83;;;0.10;;
75520;SDS011;64102;48.628;9.002;2024-02-14T08:46:23;2.08;;;0.05;;
75520;SDS011;64102;48.628;9.002;2024-02-14T08:48:48;3.65;;;0.50;;
75520;SDS011;64102;48.628;9.002;2024-02-14T08:51:14;1.00;;;0.03;;
75520;SDS011;64102;48.628;9.002;2024-02-14T08:53:39;2.22;;;0.10;;
75520;SDS011;64102;48.628;9.002;2024-02-14T08:56:07;1.55;;;0.03;;
75520;SDS011;64102;48.628;9.002;2024-02-14T08:58:34;2.90;;;0.15;;
75520;SDS011;64102;48.628;9.002;2024-02-14T09:01:00;2.80;;;0.10;;
75520;SDS011;64102;48.628;9.002;2024-02-14T09:03:25;2.08;;;0.10;;
75520;SDS011;64102;48.628;9.002;2024-02-14T09:05:50;3.57;;;0.20;;
75520;SDS011;64102;48.628;9.002;2024-02-14T09:08:18;2.00;;;0.10;;
75520;SDS011;64102;48.628;9.002;2024-02-14T09:10:43;2.58;;;0.10;;
75520;SDS011;64102;48.628;9.002;2024-02-14T09:13:10;3.67;;;0.10;;
75520;SDS011;64102;48.628;9.002;2024-02-14T09:15:36;2.17;;;0.10;;
75520;SDS011;64102;48.628;9.002;2024-02-14T09:18:01;2.47;;;0.10;;
75520;SDS011;64102;48.628;9.002;2024-02-14T09:20:28;2.40;;;0.20;;
75520;SDS011;64102;48.628;9.002;2024-02-14T09:22:54;2.60;;;0.10;;
75520;SDS011;64102;48.628;9.002;2024-02-14T09:25:20;3.75;;;0.20;;
75520;SDS011;64102;48.628;9.002;2024-02-14T09:27:48;2.63;;;0.10;;
75520;SDS011;64102;48.628;9.002;2024-02-14T09:30:13;3.90;;;0.10;;
75520;SDS011;64102;48.628;9.002;2024-02-14T09:32:39;1.10;;;0.10;;
75520;SDS011;64102;48.628;9.002;2024-02-14T09:35:04;2.03;;;0.10;;
75520;SDS011;64102;48.628;9.002;2024-02-14T09:37:31;6.05;;;0.30;;
75520;SDS011;64102;48.628;9.002;2024-02-14T09:39:57;1.52;;;0.10;;
75520;SDS011;64102;48.628;9.002;2024-02-14T09:42:27;2.00;;;0.00;;
75520;SDS011;64102;48.628;9.002;2024-02-14T09:44:58;2.63;;;0.10;;
75520;SDS011;64102;48.628;9.002;2024-02-14T09:47:24;1.75;;;0.00;;
75520;SDS011;64102;48.628;9.002;2024-02-14T09:49:55;1.88;;;0.10;;
75520;SDS011;64102;48.628;9.002;2024-02-14T09:52:22;2.60;;;0.10;;
75520;SDS011;64102;48.628;9.002;2024-02-14T09:54:48;1.52;;;0.00;;
75520;SDS011;64102;48.628;9.002;2024-02-14T09:57:15;1.58;;;0.03;;
75520;SDS011;64102;48.628;9.002;2024-02-14T09:59:42;3.25;;;0.00;;
75520;SDS011;64102;48.628;9.002;2024-02-14T10:02:09;0.75;;;0.05;;
75520;SDS011;64102;48.628;9.002;2024-02-14T10:04:35;3.65;;;0.10;;
75520;SDS011;64102;48.628;9.002;2024-02-14T10:07:03;3.22;;;0.10;;
75520;SDS011;64102;48.628;9.002;2024-02-14T10:09:30;1.30;;;0.15;;
75520;SDS011;64102;48.628;9.002;2024-02-14T10:11:55;2.00;;;0.10;;
75520;SDS011;64102;48.628;9.002;2024-02-14T10:14:22;4.25;;;0.10;;
75520;SDS011;64102;48.628;9.002;2024-02-14T10:16:48;4.18;;;0.22;;
75520;SDS011;64102;48.628;9.002;2024-02-14T10:19:17;1.80;;;0.00;;
75520;SDS011;64102;48.628;9.002;2024-02-14T10:21:43;3.08;;;0.20;;
75520;SDS011;64102;48.628;9.002;2024-02-14T10:24:08;3.75;;;0.10;;
75520;SDS011;64102;48.628;9.002;2024-02-14T10:26:36;3.00;;;0.10;;
75520;SDS011;64102;48.628;9.002;2024-02-14T10:29:02;3.42;;;0.15;;
75520;SDS011;64102;48.628;9.002;2024-02-14T10:31:27;2.05;;;0.08;;
75520;SDS011;64102;48.628;9.002;2024-02-14T10:33:56;3.57;;;0.10;;
75520;SDS011;64102;48.628;9.002;2024-02-14T10:36:21;3.25;;;0.20;;
75520;SDS011;64102;48.628;9.002;2024-02-14T10:38:47;1.23;;;0.00;;
75520;SDS011;64102;48.628;9.002;2024-02-14T10:41:18;2.67;;;0.10;;
75520;SDS011;64102;48.628;9.002;2024-02-14T10:43:43;1.88;;;0.10;;
75520;SDS011;64102;48.628;9.002;2024-02-14T10:46:14;1.77;;;0.10;;
75520;SDS011;64102;48.628;9.002;2024-02-14T10:48:45;2.83;;;0.10;;
75520;SDS011;64102;48.628;9.002;2024-02-14T10:51:10;2.00;;;0.00;;
75520;SDS011;64102;48.628;9.002;2024-02-14T10:53:39;2.60;;;0.10;;
75520;SDS011;64102;48.628;9.002;2024-02-14T10:56:10;4.15;;;0.20;;
75520;SDS011;64102;48.628;9.002;2024-02-14T10:58:42;0.95;;;0.00;;
75520;SDS011;64102;48.628;9.002;2024-02-14T11:01:10;1.52;;;0.05;;
75520;SDS011;64102;48.628;9.002;2024-02-14T11:03:36;1.65;;;0.10;;
75520;SDS011;64102;48.628;9.002;2024-02-14T11:06:02;3.00;;;0.00;;
75520;SDS011;64102;48.628;9.002;2024-02-14T11:08:29;2.03;;;0.03;;
75520;SDS011;64102;48.628;9.002;2024-02-14T11:10:58;2.05;;;0.10;;
75520;SDS011;64102;48.628;9.002;2024-02-14T11:13:30;2.63;;;0.10;;
75520;SDS011;64102;48.628;9.002;2024-02-14T11:15:57;1.30;;;0.10;;
75520;SDS011;64102;48.628;9.002;2024-02-14T11:18:25;1.48;;;0.00;;
75520;SDS011;64102;48.628;9.002;2024-02-14T11:20:52;2.85;;;0.10;;
75520;SDS011;64102;48.628;9.002;2024-02-14T11:23:21;1.55;;;0.10;;
75520;SDS011;64102;48.628;9.002;2024-02-14T11:25:47;1.83;;;0.10;;
75520;SDS011;64102;48.628;9.002;2024-02-14T11:28:13;1.48;;;0.00;;
75520;SDS011;64102;48.628;9.002;2024-02-14T11:30:44;1.95;;;0.10;;
75520;SDS011;64102;48.628;9.002;2024-02-14T11:35:50;0.75;;;0.00;;
75520;SDS011;64102;48.628;9.002;2024-02-14T11:38:20;1.52;;;0.00;;
75520;SDS011;64102;48.628;9.002;2024-02-14T11:40:47;2.50;;;0.00;;
75520;SDS011;64102;48.628;9.002;2024-02-14T11:43:14;1.33;;;0.00;;
75520;SDS011;64102;48.628;9.002;2024-02-14T11:45:42;0.68;;;0.00;;
75520;SDS011;64102;48.628;9.002;2024-02-14T11:48:11;1.67;;;0.00;;
75520;SDS011;64102;48.628;9.002;2024-02-14T11:50:40;1.35;;;0.00;;
75520;SDS011;64102;48.628;9.002;2024-02-14T11:53:08;1.70;;;0.08;;
75520;SDS011;64102;48.628;9.002;2024-02-14T11:55:36;1.05;;;0.00;;
75520;SDS011;64102;48.628;9.002;2024-02-14T11:58:12;1.25;;;0.00;;
75520;SDS011;64102;48.628;9.002;2024-02-14T12:00:42;1.75;;;0.00;;
75520;SDS011;64102;48.628;9.002;2024-02-14T12:03:18;1.42;;;0.00;;
75520;SDS011;64102;48.628;9.002;2024-02-14T12:05:46;2.05;;;0.10;;
75520;SDS011;64102;48.628;9.002;2024-02-14T12:08:12;1.88;;;0.00;;
75520;SDS011;64102;48.628;9.002;2024-02-14T12:10:38;1.30;;;0.00;;
75520;SDS011;64102;48.628;9.002;2024-02-14T12:13:08;0.50;;;0.00;;
75520;SDS011;64102;48.628;9.002;2024-02-14T12:15:40;1.05;;;0.00;;
75520;SDS011;64102;48.628;9.002;2024-02-14T12:18:07;2.13;;;0.00;;
75520;SDS011;64102;48.628;9.002;2024-02-14T12:20:37;1.02;;;0.00;;
75520;SDS011;64102;48.628;9.002;2024-02-14T12:23:03;0.50;;;0.00;;
75520;SDS011;64102;48.628;9.002;2024-02-14T12:25:30;1.92;;;0.00;;
75520;SDS011;64102;48.628;9.002;2024-02-14T12:27:56;1.40;;;0.00;;
75520;SDS011;64102;48.628;9.002;2024-02-14T12:30:23;0.68;;;0.00;;
75520;SDS011;64102;48.628;9.002;2024-02-14T12:33:07;1.85;;;0.00;;
75520;SDS011;64102;48.628;9.002;2024-02-14T12:35:34;0.10;;;0.00;;
75520;SDS011;64102;48.628;9.002;2024-02-14T12:38:07;0.13;;;0.00;;
75520;SDS011;64102;48.628;9.002;2024-02-14T12:40:36;0.73;;;0.00;;
75520;SDS011;64102;48.628;9.002;2024-02-14T12:43:01;1.40;;;0.00;;
75520;SDS011;64102;48.628;9.002;2024-02-14T12:45:27;1.67;;;0.00;;
75520;SDS011;64102;48.628;9.002;2024-02-14T12:47:52;1.07;;;0.00;;
75520;SDS011;64102;48.628;9.002;2024-02-14T12:50:18;1.48;;;0.00;;
75520;SDS011;64102;48.628;9.002;2024-02-14T12:52:45;0.15;;;0.00;;
75520;SDS011;64102;48.628;9.002;2024-02-14T12:55:11;1.42;;;0.00;;
75520;SDS011;64102;48.628;9.002;2024-02-14T12:57:37;0.70;;;0.00;;
75520;SDS011;64102;48.628;9.002;2024-02-14T13:00:03;1.35;;;0.00;;
75520;SDS011;64102;48.628;9.002;2024-02-14T13:02:34;0.03;;;0.00;;
75520;SDS011;64102;48.628;9.002;2024-02-14T13:05:03;2.67;;;0.00;;
75520;SDS011;64102;48.628;9.002;2024-02-14T13:07:30;2.22;;;0.00;;
75520;SDS011;64102;48.628;9.002;2024-02-14T13:09:59;0.82;;;0.00;;
75520;SDS011;64102;48.628;9.002;2024-02-14T13:12:25;2.70;;;0.00;;
75520;SDS011;64102;48.628;9.002;2024-02-14T13:14:51;1.15;;;0.00;;
75520;SDS011;64102;48.628;9.002;2024-02-14T13:17:16;0.13;;;0.00;;
75520;SDS011;64102;48.628;9.002;2024-02-14T13:19:41;1.13;;;0.00;;
75520;SDS011;64102;48.628;9.002;2024-02-14T13:22:10;2.22;;;0.00;;
75520;SDS011;64102;48.628;9.002;2024-02-14T13:24:36;1.75;;;0.00;;
75520;SDS011;64102;48.628;9.002;2024-02-14T13:27:03;0.73;;;0.00;;
75520;SDS011;64102;48.628;9.002;2024-02-14T13:29:28;1.02;;;0.00;;
75520;SDS011;64102;48.628;9.002;2024-02-14T13:31:54;0.50;;;0.00;;
75520;SDS011;64102;48.628;9.002;2024-02-14T13:34:19;0.70;;;0.00;;
75520;SDS011;64102;48.628;9.002;2024-02-14T13:36:48;1.25;;;0.00;;
75520;SDS011;64102;48.628;9.002;2024-02-14T13:39:13;1.40;;;0.00;;
75520;SDS011;64102;48.628;9.002;2024-02-14T13:41:40;0.82;;;0.00;;
75520;SDS011;64102;48.628;9.002;2024-02-14T13:44:08;1.65;;;0.00;;
75520;SDS011;64102;48.628;9.002;2024-02-14T13:46:34;0.95;;;0.00;;
75520;SDS011;64102;48.628;9.002;2024-02-14T13:49:00;2.47;;;0.10;;
75520;SDS011;64102;48.628;9.002;2024-02-14T13:51:26;2.73;;;0.00;;
75520;SDS011;64102;48.628;9.002;2024-02-14T13:53:54;1.15;;;0.00;;
75520;SDS011;64102;48.628;9.002;2024-02-14T13:56:20;1.55;;;0.10;;
75520;SDS011;64102;48.628;9.002;2024-02-14T13:58:48;3.10;;;0.00;;
75520;SDS011;64102;48.628;9.002;2024-02-14T14:01:14;0.52;;;0.00;;
75520;SDS011;64102;48.628;9.002;2024-02-14T14:03:40;0.50;;;0.00;;
75520;SDS011;64102;48.628;9.002;2024-02-14T14:06:06;0.17;;;0.00;;
75520;SDS011;64102;48.628;9.002;2024-02-14T14:08:33;1.15;;;0.00;;
75520;SDS011;64102;48.628;9.002;2024-02-14T14:10:59;1.65;;;0.00;;
75520;SDS011;64102;48.628;9.002;2024-02-14T14:13:24;0.50;;;0.00;;
75520;SDS011;64102;48.628;9.002;2024-02-14T14:15:54;1.80;;;0.00;;
75520;SDS011;64102;48.628;9.002;2024-02-14T14:18:20;0.47;;;0.00;;
75520;SDS011;64102;48.628;9.002;2024-02-14T14:20:45;1.90;;;0.00;;
75520;SDS011;64102;48.628;9.002;2024-02-14T14:23:11;1.25;;;0.00;;
75520;SDS011;64102;48.628;9.002;2024-02-14T14:25:36;1.60;;;0.00;;
75520;SDS011;64102;48.628;9.002;2024-02-14T14:28:02;0.52;;;0.00;;
75520;SDS011;64102;48.628;9.002;2024-02-14T14:30:28;0.77;;;0.00;;
75520;SDS011;64102;48.628;9.002;2024-02-14T14:32:53;2.23;;;0.00;;
75520;SDS011;64102;48.628;9.002;2024-02-14T14:35:18;0.73;;;0.00;;
75520;SDS011;64102;48.628;9.002;2024-02-14T14:37:44;0.57;;;0.00;;
75520;SDS011;64102;48.628;9.002;2024-02-14T14:40:10;0.47;;;0.00;;
75520;SDS011;64102;48.628;9.002;2024-02-14T14:42:36;1.20;;;0.00;;
75520;SDS011;64102;48.628;9.002;2024-02-14T14:45:01;3.33;;;0.00;;